Terminal Aerodrome Forecast
Issued by NWS

Home | Current Version | Previous Version | Text Only | Print | Product List | Glossary On
Versions: 1 2 3 4 5 6 7 8 9 10 11 12 13 14 15 16 17 18 19 20
000
FTAK31 PANC 231518 AAA
TAFADU
TAF AMD
PADU 231518Z 2315/2412 VRB05KT 3SM BR OVC003
     FM231900 29006KT P6SM VCFG SCT003 BKN015
     FM232300 33006KT P6SM SCT015 BKN030=

USA.gov is the U.S. government's official web portal to all federal, state and local government web resources and services.